Main page
METAR-TAF:

METAR-TAF

Airports :

Copenhagen Airport

Copenhagen, Denmark

latitude: 55-37N, longitude: 012-39E, elevation: 5 m

Current weather observation

The report was made 30 minutes ago, at 11:50 UTC
Wind 15 kt from the West/Southwest
Temperature 5°C
Humidity 81%
Pressure 991 hPa
Visibility 10 km or more
rain

METAR: EKCH 231150Z AUTO 24015KT 9999 RA OVC023/// 05/02 Q0991 TEMPO SCT020CB

Time: 13:20 (12:20 UTC)

Forecast

The report was made 1 hour and 16 minutes ago, at 11:04 UTC
Forecast valid from 23 at 12 UTC to 24 at 12 UTC
Wind 20 kt from the South/Southwest
Visibility 10 km or more
Broken clouds at a height of 2500 ft
Temporary
from 23 at 12 UTC to 23 at 14 UTC
Wind 22 kt from the South/Southwest with gusts up to 32 kt
Scattered clouds at a height of 2000 ft, Cumulonimbus.
Becoming
from 23 at 21 UTC to 23 at 24 UTC
Wind 10 kt from the South

TAF: EKCH 231104Z 2312/2412 20020KT 9999 BKN025 TEMPO 2312/2314 21022G32KT SCT020CB BECMG 2321/2324 17010KT

Weather observations and forecasts of more than 4000 airports (METAR and TAF reports).

The available stations are represented by yellow and red dots on the map.

Hover mouse over dot to see the name of the station.

Then click to see weather observations and forecasts.

To change the map : click on the green buttons with a black cross to zoom in, on the green button with a dash to zoom out, or on the green arrows for adjacent maps.


METAR-TAF: